createdAt,value
2017-08-01T00:48:54.243Z,3.28
2017-08-01T00:51:22.988Z,3.28
2017-08-01T00:53:50.348Z,3.33
2017-08-01T00:56:17.143Z,3.97
2017-08-01T01:09:16.065Z,3.15
2017-08-01T01:14:37.958Z,3.15
2017-08-01T01:22:46.522Z,3.27
2017-08-01T01:25:21.172Z,3.45
2017-08-01T01:36:14.986Z,2.68
2017-08-01T01:38:46.726Z,2.92
2017-08-01T01:41:26.170Z,2.52
2017-08-01T01:46:46.516Z,3.13
2017-08-01T01:54:24.078Z,2.70
2017-08-01T02:02:08.852Z,3.15
2017-08-01T02:04:39.569Z,3.65
2017-08-01T02:07:20.119Z,3.17
2017-08-01T02:17:56.983Z,3.00
2017-08-01T02:25:45.920Z,3.98
2017-08-01T02:28:17.653Z,3.42
2017-08-01T02:33:22.459Z,3.50
2017-08-01T02:41:06.073Z,3.30
2017-08-01T02:46:18.496Z,4.00
2017-08-01T03:15:05.638Z,3.23
2017-08-01T03:17:47.864Z,3.87
2017-08-01T03:23:03.919Z,3.22
2017-08-01T03:25:38.891Z,3.43
2017-08-01T03:30:47.985Z,3.38
2017-08-01T03:35:49.062Z,3.70
2017-08-01T03:38:20.305Z,3.38
2017-08-01T03:46:03.906Z,3.37
2017-08-01T03:51:18.761Z,3.57
2017-08-01T04:01:29.474Z,3.83
2017-08-01T04:06:43.394Z,3.53
2017-08-01T04:11:54.353Z,3.62
2017-08-01T04:22:31.600Z,3.58
2017-08-01T04:32:56.025Z,5.38
2017-08-01T04:35:23.236Z,5.47
2017-08-01T04:37:50.042Z,5.03
2017-08-01T04:40:22.421Z,4.87
2017-08-01T04:42:56.994Z,4.72
2017-08-01T04:45:27.996Z,4.67
2017-08-01T04:50:34.085Z,5.28
2017-08-01T05:03:34.176Z,4.48
2017-08-01T05:11:21.204Z,5.67
2017-08-01T05:13:50.728Z,5.18
2017-08-01T05:29:36.299Z,5.40
2017-08-01T05:37:18.177Z,5.33
2017-08-01T05:39:44.983Z,5.82
2017-08-01T05:42:11.777Z,5.58
2017-08-01T05:44:38.592Z,5.85
2017-08-01T05:49:38.082Z,6.13
2017-08-01T05:52:06.575Z,5.54
2017-08-01T05:54:33.701Z,5.70
2017-08-01T05:57:02.386Z,6.60
2017-08-01T05:59:30.175Z,6.40
2017-08-01T06:01:56.987Z,6.30
2017-08-01T06:04:23.775Z,5.78
2017-08-01T06:06:50.596Z,6.40
2017-08-01T06:09:17.393Z,5.96
2017-08-01T06:11:44.193Z,6.22
2017-08-01T06:14:11.004Z,5.72
2017-08-01T06:16:38.067Z,6.22
2017-08-01T06:24:09.139Z,5.78
2017-08-01T06:29:07.812Z,5.82
2017-08-01T06:31:35.202Z,5.46
2017-08-01T06:44:08.096Z,5.48
2017-08-01T06:46:36.576Z,6.16
2017-08-01T06:51:36.281Z,5.10
2017-08-01T06:54:06.822Z,6.02
2017-08-01T06:56:34.506Z,5.28
2017-08-01T06:59:01.715Z,6.42
2017-08-01T07:01:29.400Z,5.62
2017-08-01T07:03:58.338Z,5.60
2017-08-01T07:06:25.465Z,5.14
2017-08-01T07:08:52.980Z,5.24
2017-08-01T07:11:20.040Z,5.48
2017-08-01T07:13:48.508Z,5.86
2017-08-01T07:16:16.534Z,4.96
2017-08-01T07:18:43.343Z,5.18
2017-08-01T07:21:10.165Z,5.00
2017-08-01T07:23:36.955Z,5.98
2017-08-01T07:26:03.786Z,5.10
2017-08-01T07:28:30.946Z,4.76
2017-08-01T07:30:57.724Z,4.82
2017-08-01T07:33:26.221Z,5.46
2017-08-01T07:38:24.368Z,4.78
2017-08-01T07:40:51.518Z,4.32
2017-08-01T07:43:19.054Z,5.38
2017-08-01T07:45:47.734Z,5.20
2017-08-01T07:48:14.871Z,4.54
2017-08-01T07:50:42.790Z,4.36
2017-08-01T07:53:09.611Z,5.80
2017-08-01T07:55:40.266Z,4.72
2017-08-01T07:58:08.873Z,5.86
2017-08-01T08:00:35.934Z,5.58
2017-08-01T08:03:02.895Z,5.62
2017-08-01T08:05:29.682Z,6.42
2017-08-01T08:07:58.366Z,6.20
2017-08-01T08:10:28.885Z,6.16
2017-08-01T08:12:58.074Z,5.88
2017-08-01T08:15:25.184Z,6.50
2017-08-01T08:17:51.984Z,6.16
2017-08-01T08:20:18.785Z,5.20
2017-08-01T08:22:47.478Z,5.54
2017-08-01T08:25:15.935Z,6.30
2017-08-01T08:30:15.236Z,6.30
2017-08-01T08:32:42.764Z,6.52
2017-08-01T08:35:09.890Z,6.70
2017-08-01T08:37:41.096Z,7.20
2017-08-01T08:40:07.902Z,6.40
2017-08-01T08:42:34.697Z,6.98
2017-08-01T08:47:32.538Z,6.20
2017-08-01T08:50:00.221Z,5.80
2017-08-01T08:52:27.899Z,6.28
2017-08-01T08:54:55.103Z,7.22
2017-08-01T08:57:22.807Z,5.70
2017-08-01T08:59:51.455Z,6.16
2017-08-01T09:02:22.480Z,6.62
2017-08-01T09:04:49.683Z,7.14
2017-08-01T09:07:19.153Z,6.50
2017-08-01T09:09:49.691Z,6.30
2017-08-01T09:12:19.281Z,6.38
2017-08-01T09:14:52.134Z,6.88
2017-08-01T09:17:20.110Z,6.30
2017-08-01T09:19:51.950Z,5.82
2017-08-01T09:27:31.150Z,6.58
2017-08-01T09:30:03.040Z,6.46
2017-08-01T09:32:35.291Z,6.52
2017-08-01T09:37:36.215Z,5.96
2017-08-01T09:45:17.767Z,7.44
2017-08-01T10:09:02.226Z,6.82
2017-08-01T10:14:23.408Z,7.32
2017-08-01T10:16:53.810Z,6.78
2017-08-01T10:19:24.623Z,6.38
2017-08-01T10:27:13.417Z,6.40
2017-08-01T10:37:28.666Z,7.18
2017-08-01T10:39:56.336Z,6.74
2017-08-01T10:42:27.668Z,7.30
2017-08-01T10:47:43.518Z,6.84
2017-08-01T10:50:17.578Z,6.70
2017-08-01T10:55:25.757Z,6.14
2017-08-01T10:57:55.328Z,5.82
2017-08-01T11:00:30.236Z,6.14
2017-08-01T11:05:31.200Z,5.92
2017-08-01T11:10:30.495Z,6.82
2017-08-01T11:13:01.068Z,5.72
2017-08-01T11:18:05.477Z,6.86
2017-08-01T11:20:35.386Z,7.12
2017-08-01T11:23:02.207Z,6.42
2017-08-01T11:25:29.780Z,7.44
2017-08-01T11:27:57.571Z,7.12
2017-08-01T11:30:32.455Z,6.88
2017-08-01T11:33:02.037Z,7.62
2017-08-01T11:35:35.945Z,7.60
2017-08-01T11:38:05.490Z,6.80
2017-08-01T11:45:43.900Z,6.12
2017-08-01T11:48:13.008Z,7.42
2017-08-01T11:50:44.378Z,6.52
2017-08-01T11:53:14.963Z,7.46
2017-08-01T11:55:41.778Z,7.22
2017-08-01T11:58:08.575Z,7.40
2017-08-01T12:00:39.314Z,6.90
2017-08-01T12:03:06.135Z,8.32
2017-08-01T12:05:33.315Z,6.40
2017-08-01T12:08:00.915Z,8.26
2017-08-01T12:10:28.085Z,6.70
2017-08-01T12:12:55.257Z,7.54
2017-08-01T12:17:53.945Z,7.46
2017-08-01T12:20:21.050Z,6.42
2017-08-01T12:22:48.571Z,7.76
2017-08-01T12:25:15.722Z,6.90
2017-08-01T12:27:42.598Z,6.78
2017-08-01T12:32:40.681Z,6.70
2017-08-01T12:35:07.766Z,6.00
2017-08-01T12:40:06.520Z,5.26
2017-08-01T12:42:33.321Z,5.72
2017-08-01T12:45:01.687Z,5.50
2017-08-01T12:52:32.420Z,5.78
2017-08-01T12:54:59.489Z,7.04
2017-08-01T12:57:27.972Z,4.74
2017-08-01T12:59:56.591Z,4.78
2017-08-01T13:02:23.748Z,4.02
2017-08-01T13:04:55.102Z,3.94
2017-08-01T13:07:23.591Z,3.84
2017-08-01T13:09:50.451Z,5.90
2017-08-01T13:12:17.602Z,4.60
2017-08-01T13:14:44.799Z,3.82
2017-08-01T13:17:11.952Z,4.14
2017-08-01T13:19:40.460Z,4.60
2017-08-01T13:22:07.281Z,4.52
2017-08-01T13:24:34.085Z,4.20
2017-08-01T13:27:02.544Z,4.86
2017-08-01T13:29:29.370Z,6.02
2017-08-01T13:31:57.089Z,5.60
2017-08-01T13:34:24.263Z,4.32
2017-08-01T13:36:51.086Z,4.80
2017-08-01T13:39:19.576Z,5.86
2017-08-01T13:41:46.373Z,4.32
2017-08-01T13:44:17.000Z,5.22
2017-08-01T13:46:44.110Z,4.84
2017-08-01T13:52:20.892Z,4.56
2017-08-01T13:54:49.386Z,4.74
2017-08-01T13:57:32.883Z,5.38
2017-08-01T14:00:03.423Z,5.98
2017-08-01T14:02:31.419Z,5.56
2017-08-01T14:04:59.771Z,6.08
2017-08-01T14:07:26.841Z,6.06
2017-08-01T14:12:27.755Z,6.30
2017-08-01T14:14:54.561Z,6.40
2017-08-01T14:17:23.030Z,6.40
2017-08-01T14:19:50.694Z,7.88
2017-08-01T14:22:17.501Z,7.52
2017-08-01T14:24:44.606Z,6.72
2017-08-01T14:27:12.465Z,6.78
2017-08-01T14:29:40.787Z,7.58
2017-08-01T14:32:07.626Z,7.38
2017-08-01T14:37:07.284Z,7.98
2017-08-01T14:39:37.784Z,6.28
2017-08-01T14:42:04.922Z,7.02
2017-08-01T14:44:31.982Z,7.62
2017-08-01T14:46:59.033Z,6.94
2017-08-01T14:49:25.907Z,8.70
2017-08-01T14:51:53.526Z,7.86
2017-08-01T14:54:20.650Z,8.08
2017-08-01T14:56:47.468Z,7.28
2017-08-01T14:59:14.646Z,5.50
2017-08-01T15:01:41.806Z,5.94
2017-08-01T15:04:10.432Z,6.20
2017-08-01T15:06:37.223Z,5.70
2017-08-01T15:09:05.686Z,7.06
2017-08-01T15:11:33.389Z,6.38
2017-08-01T15:14:00.437Z,6.98
2017-08-01T15:16:28.325Z,7.32
2017-08-01T15:18:56.959Z,7.88
2017-08-01T15:21:24.004Z,9.10
2017-08-01T15:23:50.828Z,8.82
2017-08-01T15:26:17.888Z,8.58
2017-08-01T15:28:44.691Z,9.66
2017-08-01T15:31:11.872Z,9.12
2017-08-01T15:33:39.501Z,8.98
2017-08-01T15:36:06.505Z,9.62
2017-08-01T15:38:36.977Z,11.06
2017-08-01T15:41:03.742Z,10.64
2017-08-01T15:43:30.922Z,11.62
2017-08-01T15:45:57.714Z,13.78
2017-08-01T15:48:25.329Z,12.54
2017-08-01T15:50:52.107Z,12.22
2017-08-01T15:53:18.897Z,9.54
2017-08-01T15:55:45.667Z,12.74
2017-08-01T15:58:12.466Z,11.02
2017-08-01T16:00:39.489Z,11.42
2017-08-01T16:03:07.556Z,11.26
2017-08-01T16:05:35.114Z,10.28
2017-08-01T16:10:33.321Z,10.26
2017-08-01T16:13:00.513Z,10.32
2017-08-01T16:15:31.297Z,9.90
2017-08-01T16:17:59.893Z,10.90
2017-08-01T16:20:27.421Z,9.42
2017-08-01T16:22:54.192Z,9.68
2017-08-01T16:25:20.973Z,10.18
2017-08-01T16:27:48.439Z,9.56
2017-08-01T16:30:15.226Z,9.54
2017-08-01T16:32:42.008Z,10.06
2017-08-01T16:35:09.056Z,11.00
2017-08-01T16:37:36.065Z,9.70
2017-08-01T16:40:03.267Z,10.58
2017-08-01T16:42:30.270Z,9.28
2017-08-01T16:44:57.886Z,8.40
2017-08-01T16:47:25.786Z,10.00
2017-08-01T16:52:27.651Z,9.02
2017-08-01T16:54:59.799Z,9.46
2017-08-01T16:57:30.652Z,9.58
2017-08-01T16:59:59.759Z,10.48
2017-08-01T17:02:31.698Z,9.48
2017-08-01T17:07:32.511Z,9.28
2017-08-01T17:09:59.710Z,9.20
2017-08-01T17:12:26.791Z,8.32
2017-08-01T17:14:54.404Z,8.62
2017-08-01T17:17:21.912Z,9.28
2017-08-01T17:19:49.604Z,8.50
2017-08-01T17:22:17.298Z,9.58
2017-08-01T17:24:47.808Z,10.82
2017-08-01T17:27:16.524Z,10.16
2017-08-01T17:34:49.876Z,10.56
2017-08-01T17:50:09.821Z,8.78
2017-08-01T17:55:35.306Z,9.06
2017-08-01T18:05:47.324Z,7.62
2017-08-01T18:08:17.729Z,7.02
2017-08-01T18:13:16.469Z,7.53
2017-08-01T18:18:17.152Z,8.20
2017-08-01T18:28:21.950Z,9.78
2017-08-01T18:41:07.855Z,10.10
2017-08-01T18:43:38.488Z,8.26
2017-08-01T18:48:43.655Z,8.98
2017-08-01T19:01:35.851Z,8.27
2017-08-01T19:04:03.922Z,7.93
2017-08-01T19:11:39.397Z,7.66
2017-08-01T19:14:06.648Z,6.76
2017-08-01T19:16:35.576Z,7.92
2017-08-01T19:21:35.814Z,9.40
2017-08-01T19:24:06.274Z,10.47
2017-08-01T19:26:39.109Z,9.25
2017-08-01T19:31:38.359Z,9.78
2017-08-01T19:34:06.135Z,10.42
2017-08-01T19:36:34.641Z,9.23
2017-08-01T19:39:04.015Z,9.05
2017-08-01T19:41:36.824Z,8.55
2017-08-01T19:44:06.611Z,9.20
2017-08-01T19:46:35.309Z,10.65
2017-08-01T19:51:35.902Z,9.42
2017-08-01T19:56:38.812Z,8.50
2017-08-01T19:59:06.011Z,8.78
2017-08-01T20:01:35.213Z,7.78
2017-08-01T20:04:02.900Z,6.97
2017-08-01T20:06:29.737Z,7.15
2017-08-01T20:09:01.338Z,6.88
2017-08-01T20:13:59.494Z,6.22
2017-08-01T20:16:26.695Z,6.33
2017-08-01T20:19:01.798Z,5.52
2017-08-01T20:21:30.687Z,6.38
2017-08-01T20:26:29.337Z,6.17
2017-08-01T20:28:57.840Z,6.90
2017-08-01T20:31:31.458Z,7.05
2017-08-01T20:34:04.842Z,6.77
2017-08-01T20:39:12.799Z,7.42
2017-08-01T20:46:56.282Z,7.58
2017-08-01T20:57:06.728Z,7.67
2017-08-01T21:04:39.642Z,7.10
2017-08-01T21:07:10.629Z,7.85
2017-08-01T21:12:16.882Z,8.08
2017-08-01T21:14:45.686Z,8.22
2017-08-01T21:17:16.163Z,8.37
2017-08-01T21:19:45.394Z,8.93
2017-08-01T21:22:15.353Z,8.17
2017-08-01T21:27:15.721Z,9.15
2017-08-01T21:29:43.676Z,9.13
2017-08-01T21:34:42.880Z,9.02
2017-08-01T21:37:10.615Z,9.77
2017-08-01T21:39:37.830Z,9.47
2017-08-01T21:42:04.903Z,8.77
2017-08-01T21:44:33.494Z,7.30
2017-08-01T21:57:10.568Z,10.50
2017-08-01T22:02:15.340Z,9.37
2017-08-01T22:04:51.035Z,10.18
2017-08-01T22:07:22.025Z,9.83
2017-08-01T22:09:51.266Z,9.65
2017-08-01T22:14:50.389Z,10.03
2017-08-01T22:17:20.217Z,10.32
2017-08-01T22:19:48.716Z,11.18
2017-08-01T22:24:48.446Z,11.22
2017-08-01T22:29:52.703Z,11.32
2017-08-01T22:37:24.061Z,11.48
2017-08-01T22:42:36.575Z,10.08
2017-08-01T22:52:48.215Z,11.33
2017-08-01T22:57:55.424Z,12.00
2017-08-01T23:03:01.189Z,12.08
2017-08-01T23:05:31.689Z,13.32
2017-08-01T23:08:02.726Z,12.12
2017-08-01T23:10:34.735Z,11.80
2017-08-01T23:15:43.345Z,11.73
2017-08-01T23:18:12.582Z,11.42
2017-08-01T23:23:23.481Z,12.45
2017-08-01T23:25:55.431Z,13.55
2017-08-01T23:28:26.385Z,12.57
2017-08-01T23:30:58.347Z,13.27
2017-08-01T23:33:29.260Z,11.15
2017-08-01T23:38:29.559Z,12.18
2017-08-01T23:43:34.310Z,12.72
2017-08-01T23:48:35.137Z,14.38
2017-08-01T23:53:34.024Z,13.00
2017-08-01T23:56:12.095Z,14.02
2017-08-01T23:58:42.926Z,15.35
